Time;durP1;ratioP1;P1;durP2;ratioP2;P2;SDS_P1;SDS_P2;PMS_P1;PMS_P2;Temp;Humidity;BMP_temperature;BMP_pressure;BME280_temperature;BME280_humidity;BME280_pressure;Samples;Min_cycle;Max_cycle;Signal;HPM_P1;HPM_P2
2022/09/26 05:56:11;;;;;;;10.25;6.60;;;;;;;9.91;98.74;99900.41;1641743;83;21387;-46
2022/09/26 05:58:40;;;;;;;9.28;7.37;;;;;;;10.06;98.73;99889.46;1628271;84;21616;-39
2022/09/26 06:01:17;;;;;;;21.50;7.42;;;;;;;10.15;98.65;99884.65;1659810;84;21105;-45
2022/09/26 06:03:46;;;;;;;5.87;5.37;;;;;;;10.24;98.69;99885.92;1625551;86;21035;-39
2022/09/26 06:06:16;;;;;;;9.83;6.97;;;;;;;10.37;99.50;99877.56;1678126;83;21513;-38
2022/09/26 06:08:45;;;;;;;11.50;6.03;;;;;;;10.52;100.00;99876.62;1671587;84;20995;-38
2022/09/26 06:11:29;;;;;;;10.23;6.28;;;;;;;10.70;100.00;99873.88;1639353;86;21101;-39
2022/09/26 06:14:11;;;;;;;18.80;6.83;;;;;;;10.86;99.84;99873.33;1610366;87;21497;-46
2022/09/26 06:16:27;;;;;;;11.35;6.37;;;;;;;11.05;99.78;99875.34;1657427;85;21092;-45
2022/09/26 06:18:54;;;;;;;10.08;5.70;;;;;;;11.25;99.37;99880.39;1645261;85;20992;-38
2022/09/26 06:21:22;;;;;;;8.70;6.78;;;;;;;11.42;98.55;99874.55;1669852;84;21061;-46
2022/09/26 06:24:21;;;;;;;13.25;7.12;;;;;;;11.58;97.68;99876.58;1662175;84;21303;-45
2022/09/26 06:26:57;;;;;;;11.75;7.55;;;;;;;11.75;97.02;99876.39;1581004;88;21164;-37
2022/09/26 06:29:29;;;;;;;10.03;6.33;;;;;;;11.95;96.44;99875.77;1583229;89;21062;-38
2022/09/26 06:35:16;;;;;;;12.82;7.10;;;;;;;12.24;95.32;99869.70;1584898;88;20181;-37
2022/09/26 06:38:04;;;;;;;7.80;6.50;;;;;;;12.45;94.24;99867.66;1571696;88;21686;-38
2022/09/26 06:41:00;;;;;;;8.40;7.05;;;;;;;12.60;94.26;99867.44;1563863;89;21092;-38
2022/09/26 06:44:18;;;;;;;10.82;7.70;;;;;;;12.78;92.55;99866.28;1595323;88;21064;-38
2022/09/26 06:46:52;;;;;;;12.13;7.80;;;;;;;12.92;91.27;99864.74;1583933;88;21435;-45
2022/09/26 06:50:02;;;;;;;20.00;7.72;;;;;;;13.08;90.51;99867.54;1591243;88;21185;-37
2022/09/26 06:52:48;;;;;;;11.15;7.03;;;;;;;13.23;89.12;99868.63;1565817;89;21152;-45
2022/09/26 06:55:15;;;;;;;11.22;6.70;;;;;;;13.43;87.48;99862.14;1589176;88;21161;-37
2022/09/26 06:57:46;;;;;;;11.18;6.12;;;;;;;13.62;86.80;99866.59;1582791;88;21127;-37
2022/09/26 07:00:14;;;;;;;5.87;4.70;;;;;;;13.80;83.08;99861.01;1585461;88;21652;-38
2022/09/26 07:03:04;;;;;;;8.80;3.80;;;;;;;14.02;77.90;99855.70;1620934;83;21536;-39
2022/09/26 07:05:44;;;;;;;;;;;;;;;14.28;73.73;99854.29;1586339;88;21437;-38
2022/09/26 07:08:11;;;;;;;6.05;3.75;;;;;;;14.44;71.10;99858.73;1577191;88;20169;-40
2022/09/26 07:10:38;;;;;;;4.97;3.70;;;;;;;14.55;69.59;99855.02;1582821;89;21125;-38
2022/09/26 07:13:09;;;;;;;5.28;3.95;;;;;;;14.66;68.07;99852.11;1577640;89;21686;-38
2022/09/26 07:15:36;;;;;;;4.08;3.37;;;;;;;14.77;67.35;99851.86;1576106;89;21104;-38
2022/09/26 07:18:06;;;;;;;4.08;3.12;;;;;;;14.87;67.47;99847.66;1557286;89;21046;-38
2022/09/26 07:20:45;;;;;;;7.78;3.30;;;;;;;14.99;66.79;99849.58;1574788;89;21671;-45
2022/09/26 07:23:15;;;;;;;5.78;3.33;;;;;;;15.08;67.16;99839.68;1572600;89;21438;-45
2022/09/26 07:25:45;;;;;;;6.17;3.75;;;;;;;15.15;65.43;99842.56;1572321;89;21176;-45
2022/09/26 07:28:12;;;;;;;7.05;3.55;;;;;;;15.22;65.07;99843.72;1571972;89;21016;-45
2022/09/26 07:30:55;;;;;;;5.15;3.10;;;;;;;15.27;64.81;99838.74;1567851;89;21630;-45
2022/09/26 07:33:46;;;;;;;4.12;2.70;;;;;;;15.36;64.77;99834.98;1579110;89;21011;-38
2022/09/26 07:36:17;;;;;;;5.00;3.02;;;;;;;15.46;64.77;99823.75;1576478;89;21509;-44
2022/09/26 07:38:48;;;;;;;6.97;2.85;;;;;;;15.55;64.87;99814.28;1575278;89;21120;-46
2022/09/26 07:41:15;;;;;;;4.03;3.27;;;;;;;15.68;64.01;99809.09;1572680;89;21069;-45
2022/09/26 07:43:43;;;;;;;5.33;3.22;;;;;;;15.82;63.64;99812.64;1667957;83;21372;-45
2022/09/26 07:52:00;;;;;;;2.70;2.47;;;;;;;16.23;60.63;99798.20;1673295;83;21060;-39
2022/09/26 07:54:46;;;;;;;5.75;3.25;;;;;;;16.31;61.59;99793.58;1632859;85;21093;-46
2022/09/26 07:57:34;;;;;;;6.58;2.87;;;;;;;16.39;62.06;99788.04;1628519;86;21541;-36
2022/09/26 08:00:18;;;;;;;3.60;2.85;;;;;;;16.46;61.75;99786.92;1611670;86;21069;-45
2022/09/26 08:02:47;;;;;;;4.95;2.77;;;;;;;16.54;62.68;99784.06;1620755;86;21008;-37
2022/09/26 08:05:18;;;;;;;6.28;3.55;;;;;;;16.62;62.52;99782.88;1652078;85;21669;-37
2022/09/26 08:07:46;;;;;;;4.75;3.33;;;;;;;16.67;63.21;99778.31;1650325;85;21663;-45
2022/09/26 08:10:22;;;;;;;4.78;3.27;;;;;;;16.73;63.29;99782.56;1653054;85;21588;-45
2022/09/26 08:13:08;;;;;;;8.13;4.17;;;;;;;16.79;63.90;99781.04;1638140;86;20974;-45
2022/09/26 08:15:53;;;;;;;10.10;3.77;;;;;;;16.88;64.90;99776.78;1645009;85;21526;-46
2022/09/26 08:18:22;;;;;;;8.18;3.67;;;;;;;16.99;65.70;99780.38;1647694;85;21085;-39
2022/09/26 08:20:48;;;;;;;8.88;3.80;;;;;;;17.11;66.28;99779.95;1652318;84;21105;-38
2022/09/26 08:23:18;;;;;;;8.15;4.03;;;;;;;17.23;66.88;99782.63;1655665;85;21532;-38
2022/09/26 08:25:49;;;;;;;12.45;5.00;;;;;;;17.32;67.38;99776.12;1637167;84;21030;-38
2022/09/26 08:28:40;;;;;;;9.10;3.90;;;;;;;17.40;67.67;99776.73;1640277;84;21179;-38
2022/09/26 08:31:12;;;;;;;6.03;4.28;;;;;;;17.53;68.51;99764.33;1656072;84;21076;-38
2022/09/26 08:33:40;;;;;;;5.62;4.05;;;;;;;17.67;68.96;99763.80;1655496;84;21698;-38
2022/09/26 08:36:10;;;;;;;5.30;3.80;;;;;;;17.82;69.79;99767.70;1659735;84;21045;-45
2022/09/26 08:38:48;;;;;;;10.80;5.12;;;;;;;17.97;70.38;99771.53;1616780;86;21036;-43
2022/09/26 08:41:31;;;;;;;10.65;4.47;;;;;;;18.12;71.28;99764.33;1593891;84;21133;-44
2022/09/26 08:44:37;;;;;;;11.10;4.40;;;;;;;18.21;72.45;99764.44;1655723;84;20978;-45
2022/09/26 08:47:29;;;;;;;8.85;4.55;;;;;;;18.19;73.11;99760.50;1571745;88;21403;-45
2022/09/26 08:50:08;;;;;;;8.30;3.90;;;;;;;18.16;73.99;99754.48;1574881;87;21100;-46
2022/09/26 08:52:55;;;;;;;7.83;4.65;;;;;;;18.16;75.22;99746.55;1643038;85;21920;-38
2022/09/26 08:55:25;;;;;;;9.03;4.60;;;;;;;18.18;75.51;99760.11;1647406;85;21098;-38
2022/09/26 08:57:59;;;;;;;8.55;3.87;;;;;;;18.19;75.81;99751.23;1660975;84;21691;-39
2022/09/26 09:00:27;;;;;;;10.23;4.60;;;;;;;18.23;76.30;99751.53;1662962;84;22104;-47
2022/09/26 09:03:21;;;;;;;7.35;4.47;;;;;;;18.27;76.75;99750.48;1662543;84;21462;-38
2022/09/26 09:05:52;;;;;;;11.25;5.15;;;;;;;18.30;77.04;99754.33;1665067;84;21093;-37
2022/09/26 09:08:26;;;;;;;10.32;5.00;;;;;;;18.30;77.04;99745.52;1644040;85;21070;-45
2022/09/26 09:11:46;;;;;;;10.03;4.72;;;;;;;18.32;77.30;99745.88;1658555;84;21117;-45
2022/09/26 09:14:31;;;;;;;11.95;5.35;;;;;;;18.38;77.84;99749.17;1661065;84;21045;-44
2022/09/26 09:17:39;;;;;;;7.90;3.75;;;;;;;18.47;78.16;99746.16;1651570;84;21636;-38
2022/09/26 09:20:45;;;;;;;8.45;4.28;;;;;;;18.54;77.39;99743.66;1654294;84;21040;-38
2022/09/26 09:23:40;;;;;;;7.12;4.12;;;;;;;18.61;77.10;99745.12;1650738;84;21057;-38
2022/09/26 09:27:10;;;;;;;8.50;5.17;;;;;;;18.66;76.55;99747.58;1600049;87;21109;-39
2022/09/26 09:30:35;;;;;;;14.50;4.65;;;;;;;18.63;76.76;99744.61;1597947;87;22017;-38
2022/09/26 09:37:33;;;;;;;7.78;4.42;;;;;;;18.44;78.21;99734.36;1594827;87;21130;-45
2022/09/26 09:40:33;;;;;;;8.60;4.08;;;;;;;18.39;79.07;99733.24;1600954;87;21659;-38
2022/09/26 09:43:06;;;;;;;6.28;4.20;;;;;;;18.42;79.64;99733.56;1605272;86;21100;-45
2022/09/26 09:45:52;;;;;;;11.83;4.80;;;;;;;18.47;79.42;99731.12;1585616;87;21545;-45
2022/09/26 09:48:25;;;;;;;5.53;3.98;;;;;;;18.56;79.50;99725.93;1545416;91;22106;-46
2022/09/26 09:51:25;;;;;;;7.47;4.40;;;;;;;18.70;79.20;99721.40;1494754;93;22080;-45
2022/09/26 09:54:12;;;;;;;7.17;5.00;;;;;;;18.84;77.01;99719.90;1537008;91;21105;-38
2022/09/26 09:57:24;;;;;;;7.87;4.35;;;;;;;19.00;76.00;99710.80;1513771;93;21177;-38
2022/09/26 10:00:13;;;;;;;6.17;4.20;;;;;;;19.16;73.84;99709.66;1540728;91;21655;-38
2022/09/26 10:03:00;;;;;;;7.37;3.70;;;;;;;19.35;71.98;99694.64;1544562;91;21506;-45
2022/09/26 10:05:50;;;;;;;12.75;4.03;;;;;;;19.54;69.90;99695.12;1547705;89;21197;-45
2022/09/26 10:08:24;;;;;;;7.53;4.58;;;;;;;19.75;71.18;99691.50;1570415;88;21652;-46
2022/09/26 10:11:40;;;;;;;9.30;3.92;;;;;;;20.17;70.71;99681.08;1558871;88;21622;-46
2022/09/26 10:14:44;;;;;;;7.72;4.28;;;;;;;20.65;67.39;99667.66;1568553;88;21960;-46
2022/09/26 10:17:27;;;;;;;6.25;3.50;;;;;;;20.98;65.38;99670.34;1570507;88;21104;-47
2022/09/26 10:20:08;;;;;;;5.17;3.58;;;;;;;21.16;63.28;99664.07;1574729;89;21973;-39
2022/09/26 10:22:42;;;;;;;6.58;3.72;;;;;;;21.43;61.34;99666.20;1577286;89;21127;-39
2022/09/26 10:25:17;;;;;;;5.65;3.70;;;;;;;21.78;61.91;99662.92;1619972;85;21101;-38
2022/09/26 10:27:50;;;;;;;5.42;3.30;;;;;;;22.18;60.71;99664.69;1672899;83;21036;-47
2022/09/26 10:30:29;;;;;;;8.15;3.35;;;;;;;22.56;58.73;99653.13;1665992;83;21037;-38
2022/09/26 10:33:02;;;;;;;10.65;3.20;;;;;;;22.63;58.00;99662.47;1667344;84;21728;-39
2022/09/26 10:35:52;;;;;;;4.83;2.83;;;;;;;22.87;57.78;99648.16;1577069;88;21112;-40
2022/09/26 10:38:26;;;;;;;4.72;3.00;;;;;;;23.11;57.39;99640.45;1568306;89;21497;-46
2022/09/26 10:41:04;;;;;;;5.67;3.23;;;;;;;23.39;55.37;99640.08;1597032;87;21125;-39
2022/09/26 10:43:34;;;;;;;4.00;2.87;;;;;;;23.40;55.22;99637.78;1599674;87;21976;-46
2022/09/26 10:46:16;;;;;;;4.50;3.22;;;;;;;23.64;55.72;99645.59;1588094;88;21889;-47
2022/09/26 10:48:50;;;;;;;5.53;3.45;;;;;;;23.99;53.80;99643.30;1542181;88;21400;-46
2022/09/26 10:51:41;;;;;;;4.25;3.33;;;;;;;23.90;53.56;99629.23;1585855;88;21650;-47
2022/09/26 10:54:21;;;;;;;4.92;3.20;;;;;;;23.46;53.55;99624.89;1586243;88;21041;-46
2022/09/26 10:56:53;;;;;;;3.70;3.27;;;;;;;22.98;55.14;99628.36;1582680;88;21085;-47
2022/09/26 10:59:24;;;;;;;10.93;3.42;;;;;;;22.72;56.14;99623.23;1602144;88;21020;-46
2022/09/26 11:01:54;;;;;;;5.25;3.50;;;;;;;22.48;55.88;99624.72;1593553;88;20991;-48
2022/09/26 11:07:31;;;;;;;6.12;3.20;;;;;;;22.15;56.26;99619.56;1598870;88;21087;-48
2022/09/26 11:10:19;;;;;;;7.15;3.72;;;;;;;22.28;55.29;99616.59;1592509;88;21082;-39
2022/09/26 11:13:18;;;;;;;6.75;3.40;;;;;;;22.43;55.42;99612.14;1640015;84;21937;-47
2022/09/26 11:16:06;;;;;;;6.15;3.10;;;;;;;22.53;54.82;99606.65;1669652;84;21034;-41
2022/09/26 11:18:59;;;;;;;5.33;3.08;;;;;;;22.38;55.43;99609.77;1656165;84;21739;-46
2022/09/26 11:21:58;;;;;;;4.22;3.05;;;;;;;22.06;57.34;99607.62;1670908;84;21632;-40
2022/09/26 11:24:50;;;;;;;6.15;3.45;;;;;;;21.78;58.08;99606.53;1658078;84;21059;-45
2022/09/26 11:28:05;;;;;;;8.38;3.75;;;;;;;21.60;58.31;99604.06;1657953;84;21061;-46
2022/09/26 11:30:46;;;;;;;10.10;4.15;;;;;;;21.51;59.10;99600.98;1667145;83;21063;-39
2022/09/26 11:33:17;;;;;;;3.83;3.17;;;;;;;21.39;59.30;99598.13;1654113;83;21067;-40
2022/09/26 11:36:30;;;;;;;8.35;3.35;;;;;;;21.22;58.85;99589.27;1649476;83;21341;-39
2022/09/26 11:39:24;;;;;;;8.33;3.70;;;;;;;21.10;59.95;99596.55;1635627;86;21057;-49
2022/09/26 11:42:24;;;;;;;5.58;3.15;;;;;;;21.05;61.02;99598.63;1635621;86;20986;-40
2022/09/26 11:44:56;;;;;;;4.37;3.27;;;;;;;21.06;60.32;99591.51;1658954;84;21128;-39
2022/09/26 11:47:58;;;;;;;9.28;3.65;;;;;;;21.09;61.09;99596.17;1643236;84;21459;-47
2022/09/26 11:50:50;;;;;;;8.43;3.42;;;;;;;21.12;61.17;99595.16;1657929;84;21697;-38
2022/09/26 11:53:27;;;;;;;5.70;3.50;;;;;;;21.15;60.67;99573.23;1637209;85;21045;-40
2022/09/26 11:56:26;;;;;;;5.12;3.80;;;;;;;21.19;60.40;99571.27;1616503;85;21117;-38
2022/09/26 11:59:19;;;;;;;9.80;4.17;;;;;;;21.21;60.64;99566.23;1642308;85;21044;-39
2022/09/26 12:02:14;;;;;;;;;;;;;;;21.23;60.01;99571.02;1600820;87;21070;-39
2022/09/26 12:05:18;;;;;;;5.17;3.33;;;;;;;21.25;60.93;99566.94;1591317;88;20123;-39
2022/09/26 12:08:21;;;;;;;9.70;3.77;;;;;;;21.17;60.09;99560.73;1601223;88;21392;-46
2022/09/26 12:11:38;;;;;;;4.67;3.58;;;;;;;21.02;60.82;99560.70;1594107;88;21125;-46
2022/09/26 12:14:17;;;;;;;4.90;3.50;;;;;;;20.96;61.35;99553.91;1593770;88;21035;-46
2022/09/26 12:17:01;;;;;;;5.15;3.65;;;;;;;21.06;61.59;99563.11;1609479;87;21119;-48
2022/09/26 12:19:47;;;;;;;7.60;3.72;;;;;;;21.10;61.40;99561.13;1605692;87;22155;-39
2022/09/26 12:22:37;;;;;;;5.80;3.50;;;;;;;21.08;61.06;99561.69;1604872;87;21568;-40
2022/09/26 12:25:24;;;;;;;8.40;3.40;;;;;;;21.06;61.11;99568.44;1604352;87;21651;-47
2022/09/26 12:28:19;;;;;;;7.67;3.37;;;;;;;21.10;61.32;99577.08;1594267;87;21157;-38
2022/09/26 12:30:52;;;;;;;;;;;;;;;21.16;61.11;99572.31;1604627;87;21655;-38
2022/09/26 12:33:55;;;;;;;4.87;3.20;;;;;;;21.23;60.20;99577.67;1599354;87;20453;-39
2022/09/26 12:36:46;;;;;;;5.72;3.17;;;;;;;21.21;60.64;99573.36;1607257;87;21463;-39
2022/09/26 12:39:40;;;;;;;5.25;3.62;;;;;;;21.17;60.69;99575.83;1649335;86;21062;-46
2022/09/26 12:42:33;;;;;;;9.50;3.98;;;;;;;21.13;61.08;99571.61;1657013;84;20994;-45
2022/09/26 12:45:28;;;;;;;8.88;3.95;;;;;;;21.16;60.76;99573.64;1654776;86;21088;-39
2022/09/26 12:48:28;;;;;;;8.55;3.58;;;;;;;21.20;60.71;99572.98;1657686;84;21041;-45
2022/09/26 12:51:26;;;;;;;4.90;3.50;;;;;;;21.24;61.54;99559.91;1656479;84;21608;-45
2022/09/26 12:54:18;;;;;;;5.15;3.30;;;;;;;21.30;60.42;99556.94;1662978;84;21052;-46
2022/09/26 12:56:56;;;;;;;;;;;;;;;21.28;61.15;99561.47;1661037;84;21033;-39
